createdAt,value
2023-02-11T00:00:29.660Z,96.7412109375
2023-02-11T00:01:29.360Z,96.5302734375
2023-02-11T00:02:29.392Z,96.330078125
2023-02-11T00:03:29.496Z,96.412109375
2023-02-11T00:04:31.719Z,96.2060546875
2023-02-11T00:05:29.689Z,95.912109375
2023-02-11T00:06:29.464Z,95.9189453125
2023-02-11T00:07:29.388Z,95.5302734375
2023-02-11T00:08:29.398Z,95.7353515625
2023-02-11T00:09:31.827Z,95.7578125
2023-02-11T00:10:29.687Z,95.6357421875
2023-02-11T00:11:29.324Z,95.349609375
2023-02-11T00:12:29.420Z,95.017578125
2023-02-11T00:13:29.437Z,94.8291015625
2023-02-11T00:14:29.408Z,94.708984375
2023-02-11T00:15:31.908Z,94.4990234375
2023-02-11T00:16:29.516Z,94.357421875
2023-02-11T00:17:29.324Z,94.1171875
2023-02-11T00:18:29.300Z,94.3173828125
2023-02-11T00:19:29.444Z,94.2197265625
2023-02-11T00:20:29.669Z,94.0810546875
2023-02-11T00:21:29.437Z,93.892578125
2023-02-11T00:22:29.351Z,93.861328125
2023-02-11T00:23:29.330Z,93.701171875
2023-02-11T00:24:29.446Z,93.8759765625
2023-02-11T00:25:29.683Z,94.0517578125
2023-02-11T00:26:31.679Z,93.8974609375
2023-02-11T00:27:29.422Z,93.853515625
2023-02-11T00:28:29.350Z,93.7939453125
2023-02-11T00:29:29.418Z,94.1533203125
2023-02-11T00:30:29.753Z,94.310546875
2023-02-11T00:31:29.575Z,94.640625
2023-02-11T00:32:29.393Z,94.796875
2023-02-11T00:33:29.386Z,94.9013671875
2023-02-11T00:34:29.439Z,94.94921875
2023-02-11T00:35:29.662Z,94.7490234375
2023-02-11T00:36:29.352Z,94.7578125
2023-02-11T00:37:31.645Z,94.931640625
2023-02-11T00:38:29.437Z,94.8662109375
2023-02-11T00:39:29.369Z,94.8935546875
2023-02-11T00:40:29.346Z,95.1328125
2023-02-11T00:41:29.314Z,95.240234375
2023-02-11T00:42:29.442Z,95.296875
2023-02-11T00:43:29.325Z,95.40625
2023-02-11T00:44:29.337Z,95.041015625
2023-02-11T00:45:29.666Z,95.0166015625
2023-02-11T00:46:29.422Z,94.86328125
2023-02-11T00:47:29.428Z,94.6962890625
2023-02-11T00:48:31.627Z,94.4951171875
2023-02-11T00:49:29.370Z,94.248046875
2023-02-11T00:50:29.675Z,94.0234375
2023-02-11T00:51:29.384Z,93.96875
2023-02-11T00:52:29.443Z,93.919921875
2023-02-11T00:53:29.417Z,93.8994140625
2023-02-11T00:54:30.078Z,93.7080078125
2023-02-11T00:55:29.668Z,93.6474609375
2023-02-11T00:56:29.404Z,93.748046875
2023-02-11T00:57:29.354Z,94.04296875
2023-02-11T00:58:29.331Z,94.0849609375
2023-02-11T00:59:31.751Z,94.005859375
2023-02-11T01:00:29.672Z,94.0791015625
2023-02-11T01:01:29.530Z,94.224609375
2023-02-11T01:02:29.347Z,94.3330078125
2023-02-11T01:03:29.388Z,94.3427734375
2023-02-11T01:04:29.344Z,94.3603515625
2023-02-11T01:05:29.825Z,94.375
2023-02-11T01:06:29.310Z,94.447265625
2023-02-11T01:07:29.390Z,94.4794921875
2023-02-11T01:08:29.370Z,94.388671875
2023-02-11T01:09:29.372Z,94.2109375
2023-02-11T01:10:34.142Z,93.9130859375
2023-02-11T01:11:29.484Z,94.130859375
2023-02-11T01:12:29.405Z,94.0166015625
2023-02-11T01:13:29.333Z,94.095703125
2023-02-11T01:14:29.331Z,93.9677734375
2023-02-11T01:15:29.886Z,93.9609375
2023-02-11T01:16:29.407Z,93.79296875
2023-02-11T01:17:29.374Z,93.8212890625
2023-02-11T01:18:29.412Z,93.8466796875
2023-02-11T01:19:29.441Z,93.814453125
2023-02-11T01:20:29.668Z,94.080078125
2023-02-11T01:21:31.710Z,93.7783203125
2023-02-11T01:22:29.354Z,93.65234375
2023-02-11T01:23:29.350Z,93.8056640625
2023-02-11T01:24:29.433Z,93.8857421875
2023-02-11T01:25:29.674Z,93.84765625
2023-02-11T01:26:29.322Z,93.64453125
2023-02-11T01:27:29.439Z,93.591796875
2023-02-11T01:28:29.397Z,93.5673828125
2023-02-11T01:29:29.284Z,93.4384765625
2023-02-11T01:30:29.664Z,93.3857421875
2023-02-11T01:31:29.436Z,93.326171875
2023-02-11T01:32:31.676Z,93.2421875
2023-02-11T01:33:29.335Z,93.2353515625
2023-02-11T01:34:29.314Z,93.03515625
2023-02-11T01:35:29.673Z,92.708984375
2023-02-11T01:36:29.355Z,92.7197265625
2023-02-11T01:37:29.363Z,92.6943359375
2023-02-11T01:38:29.441Z,92.556640625
2023-02-11T01:39:29.462Z,92.474609375
2023-02-11T01:40:29.670Z,92.5009765625
2023-02-11T01:41:29.410Z,92.4423828125
2023-02-11T01:42:29.308Z,92.4892578125
2023-02-11T01:43:31.738Z,92.5966796875
2023-02-11T01:44:29.377Z,92.7314453125
2023-02-11T01:45:29.670Z,92.4951171875
2023-02-11T01:46:29.465Z,92.486328125
2023-02-11T01:47:29.478Z,92.408203125
2023-02-11T01:48:29.478Z,92.517578125
2023-02-11T01:49:29.477Z,92.5712890625
2023-02-11T01:50:29.668Z,92.595703125
2023-02-11T01:51:29.436Z,92.44921875
2023-02-11T01:52:29.350Z,92.5078125
2023-02-11T01:53:29.448Z,92.603515625
2023-02-11T01:54:31.672Z,92.654296875
2023-02-11T01:55:29.680Z,92.6376953125
2023-02-11T01:56:29.389Z,92.703125
2023-02-11T01:57:29.383Z,93.0419921875
2023-02-11T01:58:29.341Z,93.2490234375
2023-02-11T01:59:29.319Z,93.77734375
2023-02-11T02:00:29.690Z,94.140625
2023-02-11T02:01:29.475Z,94.876953125
2023-02-11T02:02:29.442Z,95.8115234375
2023-02-11T02:03:29.435Z,96.1923828125
2023-02-11T02:04:29.384Z,96.8466796875
2023-02-11T02:05:34.174Z,97.322265625
2023-02-11T02:06:29.336Z,97.4619140625
2023-02-11T02:07:29.456Z,97.8916015625
2023-02-11T02:08:29.345Z,98.2021484375
2023-02-11T02:09:29.418Z,98.0146484375
2023-02-11T02:10:29.674Z,98.2333984375
2023-02-11T02:11:29.348Z,98.255859375
2023-02-11T02:12:29.382Z,98.6435546875
2023-02-11T02:13:29.411Z,98.7529296875
2023-02-11T02:14:29.395Z,98.779296875
2023-02-11T02:15:29.670Z,98.7919921875
2023-02-11T02:16:31.681Z,99.1171875
2023-02-11T02:17:29.443Z,99.4609375
2023-02-11T02:18:29.424Z,99.3115234375
2023-02-11T02:19:29.329Z,99.0615234375
2023-02-11T02:20:29.667Z,98.9306640625
2023-02-11T02:21:29.462Z,99.005859375
2023-02-11T02:22:29.377Z,98.8984375
2023-02-11T02:23:29.336Z,98.728515625
2023-02-11T02:24:29.448Z,98.390625
2023-02-11T02:25:29.671Z,97.6435546875
2023-02-11T02:26:29.367Z,97.7177734375
2023-02-11T02:27:31.738Z,97.8466796875
2023-02-11T02:28:29.475Z,97.681640625
2023-02-11T02:29:29.397Z,97.4990234375
2023-02-11T02:30:29.681Z,97.392578125
2023-02-11T02:31:29.410Z,97.4794921875
2023-02-11T02:32:29.415Z,97.3017578125
2023-02-11T02:33:29.377Z,97.2568359375
2023-02-11T02:34:29.410Z,97.400390625
2023-02-11T02:35:29.680Z,97.4296875
2023-02-11T02:36:29.343Z,97.427734375
2023-02-11T02:37:29.333Z,97.4560546875
2023-02-11T02:38:31.703Z,97.421875
2023-02-11T02:39:29.421Z,97.48046875
2023-02-11T02:40:29.663Z,97.2119140625
2023-02-11T02:41:29.375Z,97.1953125
2023-02-11T02:42:29.336Z,97.3701171875
2023-02-11T02:43:29.335Z,97.484375
2023-02-11T02:44:29.442Z,97.412109375
2023-02-11T02:45:29.682Z,97.5078125
2023-02-11T02:46:29.380Z,96.955078125
2023-02-11T02:47:29.339Z,96.896484375
2023-02-11T02:48:29.433Z,96.87109375
2023-02-11T02:49:31.635Z,97.0654296875
2023-02-11T02:50:29.663Z,96.9443359375
2023-02-11T02:51:29.405Z,96.869140625
2023-02-11T02:52:29.410Z,96.498046875
2023-02-11T02:53:29.323Z,96.5703125
2023-02-11T02:54:29.354Z,96.515625
2023-02-11T02:55:29.678Z,96.423828125
2023-02-11T02:56:29.405Z,96.5107421875
2023-02-11T02:57:29.430Z,96.3798828125
2023-02-11T02:58:29.408Z,96.31640625
2023-02-11T02:59:29.442Z,96.462890625
2023-02-11T03:00:31.840Z,96.3642578125
2023-02-11T03:01:29.432Z,96.3203125
2023-02-11T03:02:29.451Z,96.2802734375
2023-02-11T03:03:29.358Z,96.09375
2023-02-11T03:04:29.431Z,95.8740234375
2023-02-11T03:05:29.675Z,95.837890625
2023-02-11T03:06:29.395Z,95.44921875
2023-02-11T03:07:29.387Z,95.373046875
2023-02-11T03:08:29.347Z,95.349609375
2023-02-11T03:09:29.435Z,95.2568359375
2023-02-11T03:10:29.684Z,94.8671875
2023-02-11T03:11:31.689Z,95.2939453125
2023-02-11T03:12:29.314Z,95.5537109375
2023-02-11T03:13:29.437Z,95.5751953125
2023-02-11T03:14:29.410Z,95.6337890625
2023-02-11T03:15:29.672Z,95.421875
2023-02-11T03:16:29.371Z,95.4912109375
2023-02-11T03:17:29.359Z,95.373046875
2023-02-11T03:18:29.455Z,95.4453125
2023-02-11T03:19:29.456Z,95.44921875
2023-02-11T03:20:29.674Z,95.3125
2023-02-11T03:21:29.349Z,95.453125
2023-02-11T03:22:31.739Z,95.638671875
2023-02-11T03:23:29.354Z,95.8095703125
2023-02-11T03:24:29.330Z,95.7958984375
2023-02-11T03:25:29.325Z,96.080078125
2023-02-11T03:26:29.354Z,96.0576171875
2023-02-11T03:27:29.455Z,96.1142578125
2023-02-11T03:28:29.453Z,95.9521484375
2023-02-11T03:29:29.404Z,95.884765625
2023-02-11T03:30:29.670Z,95.8515625
2023-02-11T03:31:29.432Z,95.5791015625
2023-02-11T03:32:29.415Z,95.587890625
2023-02-11T03:33:31.652Z,95.8408203125
2023-02-11T03:34:29.377Z,95.595703125
2023-02-11T03:35:29.676Z,95.775390625
2023-02-11T03:36:29.408Z,95.7763671875
2023-02-11T03:37:29.337Z,95.78125
2023-02-11T03:38:29.336Z,95.8173828125
2023-02-11T03:39:29.446Z,95.7802734375
2023-02-11T03:40:29.723Z,95.9013671875
2023-02-11T03:41:29.468Z,96.0810546875
2023-02-11T03:42:29.314Z,96.1376953125
2023-02-11T03:43:29.441Z,96.30859375
2023-02-11T03:44:31.733Z,96.73828125
2023-02-11T03:45:29.739Z,96.3857421875
2023-02-11T03:46:29.384Z,96.58203125
2023-02-11T03:47:29.392Z,96.3203125
2023-02-11T03:48:29.446Z,96.3583984375
2023-02-11T03:49:29.433Z,96.4130859375
2023-02-11T03:50:29.699Z,96.4287109375
2023-02-11T03:51:29.439Z,96.4833984375
2023-02-11T03:52:29.445Z,96.4150390625
2023-02-11T03:53:29.428Z,96.826171875
2023-02-11T03:54:29.333Z,97.25
2023-02-11T03:55:34.118Z,97.591796875
2023-02-11T03:56:29.333Z,97.83984375
2023-02-11T03:57:29.376Z,97.8291015625
2023-02-11T03:58:29.346Z,97.794921875
2023-02-11T03:59:29.312Z,98.1591796875
2023-02-11T04:00:29.689Z,97.978515625
2023-02-11T04:01:29.494Z,98.0126953125
2023-02-11T04:02:29.319Z,98.0517578125
2023-02-11T04:03:29.554Z,97.81640625
2023-02-11T04:04:29.332Z,97.6162109375
2023-02-11T04:05:29.671Z,97.7724609375
2023-02-11T04:06:31.752Z,97.69140625
2023-02-11T04:07:29.439Z,97.572265625
2023-02-11T04:08:29.337Z,97.4951171875
2023-02-11T04:09:29.424Z,97.2529296875
2023-02-11T04:10:29.802Z,97.451171875
2023-02-11T04:11:29.339Z,97.3134765625
2023-02-11T04:12:29.450Z,97.091796875
2023-02-11T04:13:29.408Z,97.0048828125
2023-02-11T04:14:29.401Z,96.9541015625
2023-02-11T04:15:29.669Z,96.5869140625
2023-02-11T04:16:29.490Z,96.19140625
2023-02-11T04:17:31.683Z,95.9501953125
2023-02-11T04:18:29.332Z,95.7900390625
2023-02-11T04:19:29.344Z,95.6630859375
2023-02-11T04:20:29.683Z,95.3447265625
2023-02-11T04:21:29.492Z,95.3837890625
2023-02-11T04:22:29.366Z,95.0947265625
2023-02-11T04:23:29.404Z,94.9794921875
2023-02-11T04:24:29.455Z,94.921875
2023-02-11T04:25:29.681Z,94.9091796875
2023-02-11T04:26:29.381Z,94.5703125
2023-02-11T04:27:29.411Z,94.302734375
2023-02-11T04:28:31.705Z,93.931640625
2023-02-11T04:29:29.452Z,93.876953125
2023-02-11T04:30:29.716Z,93.6689453125
2023-02-11T04:31:29.407Z,93.806640625
2023-02-11T04:32:29.416Z,93.98828125
2023-02-11T04:33:29.411Z,94.072265625
2023-02-11T04:34:29.303Z,93.67578125
2023-02-11T04:35:29.674Z,93.2001953125
2023-02-11T04:36:29.427Z,93.376953125
2023-02-11T04:37:29.514Z,93.3525390625
2023-02-11T04:38:29.344Z,93.21484375
2023-02-11T04:39:31.645Z,92.9609375
2023-02-11T04:40:29.676Z,93.0849609375
2023-02-11T04:41:29.447Z,93.126953125
2023-02-11T04:42:29.360Z,92.8994140625
2023-02-11T04:43:29.342Z,92.748046875
2023-02-11T04:44:29.391Z,92.8486328125
2023-02-11T04:45:29.682Z,92.7216796875
2023-02-11T04:46:29.361Z,92.5341796875
2023-02-11T04:47:29.434Z,92.251953125
2023-02-11T04:48:29.420Z,92.1845703125
2023-02-11T04:49:29.424Z,92.3486328125
2023-02-11T04:50:34.188Z,91.9853515625
2023-02-11T04:51:29.400Z,92.1396484375
2023-02-11T04:52:29.415Z,92.4296875
2023-02-11T04:53:29.418Z,92.671875
2023-02-11T04:54:29.390Z,92.423828125
2023-02-11T04:55:29.674Z,92.4912109375
2023-02-11T04:56:29.452Z,92.80078125
2023-02-11T04:57:29.370Z,92.7783203125
2023-02-11T04:58:29.385Z,92.6005859375
2023-02-11T04:59:29.380Z,92.4130859375
2023-02-11T05:00:29.442Z,92.5146484375
2023-02-11T05:01:31.736Z,92.6767578125
2023-02-11T05:02:29.442Z,92.6953125
2023-02-11T05:03:29.423Z,92.5615234375
2023-02-11T05:04:29.409Z,92.5673828125
2023-02-11T05:05:29.675Z,92.716796875
2023-02-11T05:06:29.400Z,93.171875
2023-02-11T05:07:29.326Z,93.2666015625
2023-02-11T05:08:29.320Z,93.544921875
2023-02-11T05:09:29.319Z,93.724609375
2023-02-11T05:10:29.670Z,93.7568359375
2023-02-11T05:11:29.411Z,93.853515625
2023-02-11T05:12:31.721Z,93.7890625
2023-02-11T05:13:29.388Z,93.865234375
2023-02-11T05:14:29.414Z,93.892578125
2023-02-11T05:15:29.683Z,93.7314453125
2023-02-11T05:16:29.462Z,94.0146484375
2023-02-11T05:17:29.314Z,94.3359375
2023-02-11T05:18:29.516Z,94.3681640625
2023-02-11T05:19:29.430Z,94.396484375
2023-02-11T05:20:29.679Z,94.4423828125
2023-02-11T05:21:29.410Z,94.6318359375
2023-02-11T05:22:29.355Z,94.8994140625
2023-02-11T05:23:31.792Z,94.8056640625
2023-02-11T05:24:29.316Z,94.6572265625
2023-02-11T05:25:29.452Z,94.810546875
2023-02-11T05:26:29.416Z,94.4892578125
2023-02-11T05:27:29.406Z,94.689453125
2023-02-11T05:28:29.410Z,94.7919921875
2023-02-11T05:29:29.406Z,94.330078125
2023-02-11T05:30:29.728Z,94.291015625
2023-02-11T05:31:29.421Z,94.1611328125
2023-02-11T05:32:29.390Z,94.0048828125
2023-02-11T05:33:29.342Z,94.162109375
2023-02-11T05:34:31.734Z,94.1904296875
2023-02-11T05:35:29.677Z,94.0302734375
2023-02-11T05:36:31.644Z,93.8388671875
2023-02-11T05:37:29.373Z,93.98046875
2023-02-11T05:38:29.415Z,93.966796875
2023-02-11T05:39:29.430Z,93.9072265625
2023-02-11T05:40:29.672Z,93.8564453125
2023-02-11T05:41:29.420Z,93.525390625
2023-02-11T05:42:29.329Z,93.26171875
2023-02-11T05:43:29.463Z,93.0908203125
2023-02-11T05:44:29.342Z,93.123046875
2023-02-11T05:45:34.123Z,93.18359375
2023-02-11T05:46:29.463Z,93.255859375
2023-02-11T05:47:29.340Z,93.1767578125
2023-02-11T05:48:29.318Z,93.2509765625
2023-02-11T05:49:29.307Z,93.5546875
2023-02-11T05:50:29.677Z,93.5849609375
2023-02-11T05:51:29.441Z,93.5947265625
2023-02-11T05:52:29.343Z,93.29296875
2023-02-11T05:53:29.474Z,93.091796875
2023-02-11T05:54:29.373Z,93.166015625
2023-02-11T05:55:29.670Z,93.0478515625
2023-02-11T05:56:31.671Z,92.9443359375
2023-02-11T05:57:29.339Z,92.82421875
2023-02-11T05:58:29.376Z,92.7197265625
2023-02-11T05:59:29.328Z,92.9365234375
2023-02-11T06:00:29.684Z,92.849609375
2023-02-11T06:01:29.408Z,92.97265625
2023-02-11T06:02:29.509Z,92.9248046875
2023-02-11T06:03:29.458Z,93.3994140625
2023-02-11T06:04:29.349Z,93.462890625
2023-02-11T06:05:29.672Z,93.3193359375
2023-02-11T06:06:29.423Z,93.5908203125
2023-02-11T06:07:31.716Z,93.66015625
2023-02-11T06:08:29.451Z,93.7177734375
2023-02-11T06:09:29.453Z,93.7880859375
2023-02-11T06:10:29.338Z,93.828125
2023-02-11T06:11:29.399Z,93.951171875
2023-02-11T06:12:29.414Z,94.017578125
2023-02-11T06:13:29.414Z,94.439453125
2023-02-11T06:14:29.348Z,94.390625
2023-02-11T06:15:29.670Z,94.3427734375
2023-02-11T06:16:29.421Z,94.4951171875
2023-02-11T06:17:29.346Z,94.26171875
2023-02-11T06:18:31.721Z,94.451171875
2023-02-11T06:19:29.427Z,94.2822265625
2023-02-11T06:20:29.664Z,94.2001953125
2023-02-11T06:21:42.937Z,94.07421875
2023-02-11T06:22:29.451Z,94.248046875
2023-02-11T06:23:30.566Z,94.56640625
2023-02-11T06:24:54.661Z,94.6357421875
2023-02-11T06:25:29.682Z,94.4833984375
2023-02-11T06:26:29.454Z,94.32421875
2023-02-11T06:27:29.374Z,94.4873046875
2023-02-11T06:28:29.512Z,94.705078125
2023-02-11T06:29:31.726Z,94.8701171875
2023-02-11T06:30:29.678Z,94.8857421875
2023-02-11T06:31:29.433Z,95.0537109375
2023-02-11T06:32:43.505Z,95.3486328125
2023-02-11T06:33:29.327Z,95.630859375
2023-02-11T06:34:29.398Z,95.8369140625
2023-02-11T06:35:29.447Z,95.984375
2023-02-11T06:36:29.397Z,96.4521484375
2023-02-11T06:37:29.424Z,96.912109375
2023-02-11T06:38:29.454Z,96.94921875
2023-02-11T06:39:29.421Z,97.078125
2023-02-11T06:40:34.097Z,97.220703125
2023-02-11T06:41:29.431Z,97.6220703125
2023-02-11T06:42:29.386Z,97.912109375
2023-02-11T06:43:29.323Z,97.953125
2023-02-11T06:44:29.376Z,98.1865234375
2023-02-11T06:45:29.678Z,98.5390625
2023-02-11T06:46:29.353Z,98.6748046875
2023-02-11T06:47:29.410Z,98.8330078125
2023-02-11T06:48:29.431Z,98.7138671875
2023-02-11T06:49:29.377Z,98.9296875
2023-02-11T06:50:29.676Z,99.171875
2023-02-11T06:51:31.705Z,99.2412109375
2023-02-11T06:52:29.381Z,99.45703125
2023-02-11T06:53:29.433Z,99.5849609375
2023-02-11T06:54:29.423Z,99.615234375
2023-02-11T06:55:29.678Z,99.728515625
2023-02-11T06:56:29.419Z,99.50390625
2023-02-11T06:57:29.317Z,99.5849609375
2023-02-11T06:58:29.422Z,99.4384765625
2023-02-11T06:59:29.392Z,99.091796875
2023-02-11T07:00:29.676Z,99.1572265625
2023-02-11T07:01:29.400Z,98.8828125
2023-02-11T07:02:31.743Z,98.955078125
2023-02-11T07:03:29.408Z,98.8056640625
2023-02-11T07:04:29.404Z,98.6142578125
2023-02-11T07:05:29.817Z,98.5859375
2023-02-11T07:06:29.451Z,98.3427734375
2023-02-11T07:07:30.054Z,97.9462890625
2023-02-11T07:08:29.384Z,97.681640625
2023-02-11T07:09:29.330Z,97.751953125
2023-02-11T07:10:29.688Z,97.5986328125
2023-02-11T07:11:29.441Z,97.466796875
2023-02-11T07:12:29.401Z,97.130859375
2023-02-11T07:13:31.731Z,96.6884765625
2023-02-11T07:14:29.462Z,96.330078125
2023-02-11T07:15:29.669Z,96.0205078125
2023-02-11T07:16:29.392Z,95.7490234375
2023-02-11T07:17:29.320Z,95.474609375
2023-02-11T07:18:29.316Z,95.3056640625
2023-02-11T07:19:29.326Z,94.537109375
2023-02-11T07:20:29.517Z,94.1083984375
2023-02-11T07:21:29.341Z,93.8505859375
2023-02-11T07:22:29.430Z,93.748046875
2023-02-11T07:23:29.330Z,93.97265625
2023-02-11T07:24:31.706Z,93.7294921875
2023-02-11T07:25:29.691Z,93.5498046875
2023-02-11T07:26:29.319Z,93.4404296875
2023-02-11T07:27:29.400Z,93.150390625
2023-02-11T07:28:29.400Z,93.267578125
2023-02-11T07:29:29.324Z,92.8642578125
2023-02-11T07:30:29.685Z,92.4541015625
2023-02-11T07:31:29.507Z,92.654296875
2023-02-11T07:32:29.446Z,92.841796875
2023-02-11T07:33:29.340Z,92.7587890625
2023-02-11T07:34:29.379Z,92.791015625
2023-02-11T07:35:34.146Z,92.666015625
2023-02-11T07:36:29.360Z,92.541015625
2023-02-11T07:37:29.315Z,92.3515625
2023-02-11T07:38:29.347Z,92.134765625
2023-02-11T07:39:29.330Z,92.0419921875
2023-02-11T07:40:29.683Z,91.9921875
2023-02-11T07:41:29.301Z,91.6025390625
2023-02-11T07:42:29.432Z,91.4609375
2023-02-11T07:43:29.326Z,91.078125
2023-02-11T07:44:29.337Z,90.80859375
2023-02-11T07:45:29.437Z,90.6416015625
2023-02-11T07:46:31.761Z,90.291015625
2023-02-11T07:47:29.317Z,90.23046875
2023-02-11T07:48:29.452Z,90.1123046875
2023-02-11T07:49:29.434Z,89.8525390625
2023-02-11T07:50:29.674Z,89.5859375
2023-02-11T07:51:29.405Z,89.275390625
2023-02-11T07:52:29.324Z,89.00390625
2023-02-11T07:53:29.445Z,88.6826171875
2023-02-11T07:54:29.314Z,88.2919921875
2023-02-11T07:55:29.673Z,87.5625
2023-02-11T07:56:29.474Z,86.689453125
2023-02-11T07:57:31.649Z,86.1171875
2023-02-11T07:58:29.301Z,85.67578125
2023-02-11T07:59:29.347Z,84.705078125
2023-02-11T08:00:29.680Z,83.974609375
2023-02-11T08:01:29.383Z,83.513671875
2023-02-11T08:02:29.410Z,82.9765625
2023-02-11T08:03:29.357Z,82.4755859375
2023-02-11T08:04:29.353Z,82.099609375
2023-02-11T08:05:29.696Z,82.099609375
2023-02-11T08:06:29.399Z,82.1181640625
2023-02-11T08:07:29.412Z,82.134765625
2023-02-11T08:08:31.635Z,81.9892578125
2023-02-11T08:09:29.387Z,81.88671875
2023-02-11T08:10:29.672Z,82.02734375
2023-02-11T08:11:29.424Z,82.1884765625
2023-02-11T08:12:29.370Z,82.5322265625
2023-02-11T08:13:29.372Z,82.9443359375
2023-02-11T08:14:29.388Z,83.443359375
2023-02-11T08:15:29.676Z,83.2607421875
2023-02-11T08:16:29.475Z,83.78125
2023-02-11T08:17:29.377Z,83.990234375
2023-02-11T08:18:29.330Z,83.9091796875
2023-02-11T08:19:34.838Z,83.7001953125
2023-02-11T08:20:29.659Z,83.68359375
2023-02-11T08:21:29.478Z,83.7734375
2023-02-11T08:22:29.313Z,83.6533203125
2023-02-11T08:23:29.437Z,83.630859375
2023-02-11T08:24:29.388Z,83.6083984375
2023-02-11T08:25:29.579Z,83.7568359375
2023-02-11T08:26:29.426Z,83.583984375
2023-02-11T08:27:29.376Z,83.3115234375
2023-02-11T08:28:29.490Z,83.01953125
2023-02-11T08:29:29.410Z,82.4560546875
2023-02-11T08:30:32.076Z,82.2587890625
2023-02-11T08:31:29.460Z,82.216796875
2023-02-11T08:32:29.449Z,82.1875
2023-02-11T08:33:29.397Z,82.158203125
2023-02-11T08:34:29.322Z,81.9931640625
2023-02-11T08:35:29.665Z,81.78515625
2023-02-11T08:36:29.459Z,81.5283203125
2023-02-11T08:37:32.060Z,80.8935546875
2023-02-11T08:38:29.432Z,80.6123046875
2023-02-11T08:39:29.298Z,79.90234375
2023-02-11T08:40:29.676Z,79.3466796875
2023-02-11T08:41:31.690Z,78.8603515625
2023-02-11T08:42:29.404Z,78.16015625
2023-02-11T08:43:29.380Z,77.65234375
2023-02-11T08:44:29.417Z,77.240234375
2023-02-11T08:45:29.824Z,77.2705078125
2023-02-11T08:46:29.507Z,77.1708984375
2023-02-11T08:47:29.415Z,76.7685546875
2023-02-11T08:48:29.326Z,76.4052734375
2023-02-11T08:49:29.308Z,76.02734375
2023-02-11T08:50:29.661Z,75.8564453125
2023-02-11T08:51:29.376Z,75.4912109375
2023-02-11T08:52:31.732Z,75.72265625
2023-02-11T08:53:29.424Z,75.6767578125
2023-02-11T08:54:29.288Z,75.5830078125
2023-02-11T08:55:29.347Z,75.189453125
2023-02-11T08:56:29.427Z,75.61328125
2023-02-11T08:57:29.405Z,76.1904296875
2023-02-11T08:58:29.318Z,76.0546875
2023-02-11T08:59:29.402Z,75.37109375
2023-02-11T09:00:29.668Z,75.421875
2023-02-11T09:01:29.478Z,75.546875
2023-02-11T09:02:29.341Z,75.498046875
2023-02-11T09:03:31.711Z,74.869140625
2023-02-11T09:04:29.419Z,74.5322265625
2023-02-11T09:05:29.658Z,74.2001953125
2023-02-11T09:06:29.334Z,73.953125
2023-02-11T09:07:29.344Z,73.9150390625
2023-02-11T09:08:29.429Z,73.7021484375
2023-02-11T09:09:29.376Z,73.4931640625
2023-02-11T09:10:29.664Z,73.548828125
2023-02-11T09:11:29.347Z,73.275390625
2023-02-11T09:12:29.445Z,72.69921875
2023-02-11T09:13:29.446Z,72.232421875
2023-02-11T09:14:31.680Z,71.5791015625
2023-02-11T09:15:30.005Z,72.42578125
2023-02-11T09:16:29.487Z,72.8857421875
2023-02-11T09:17:29.339Z,73.234375
2023-02-11T09:18:29.425Z,73.2138671875
2023-02-11T09:19:29.387Z,72.78515625
2023-02-11T09:20:29.421Z,72.6591796875
2023-02-11T09:21:29.417Z,72.0078125
2023-02-11T09:22:29.319Z,71.4462890625
2023-02-11T09:23:29.406Z,70.85546875
2023-02-11T09:24:29.423Z,70.6953125
2023-02-11T09:25:34.129Z,70.21484375
2023-02-11T09:26:29.364Z,70.19140625
2023-02-11T09:27:29.388Z,69.6689453125
2023-02-11T09:28:29.339Z,69.5859375
2023-02-11T09:29:29.365Z,69.7763671875
2023-02-11T09:30:29.811Z,70.046875
2023-02-11T09:31:29.496Z,69.912109375
2023-02-11T09:32:29.365Z,70.318359375
2023-02-11T09:33:29.344Z,70.6484375
2023-02-11T09:34:29.442Z,70.5078125
2023-02-11T09:35:29.663Z,69.9482421875
2023-02-11T09:36:31.767Z,69.6845703125
2023-02-11T09:37:29.374Z,69.658203125
2023-02-11T09:38:29.317Z,69.9365234375
2023-02-11T09:39:29.469Z,70.3740234375
2023-02-11T09:40:29.681Z,70.1240234375
2023-02-11T09:41:29.450Z,70.640625
2023-02-11T09:42:29.417Z,71.291015625
2023-02-11T09:43:29.449Z,71.5966796875
2023-02-11T09:44:29.320Z,71.5234375
2023-02-11T09:45:29.672Z,71.4248046875
2023-02-11T09:46:29.467Z,71.41015625
2023-02-11T09:47:31.754Z,71.1982421875
2023-02-11T09:48:29.335Z,71.171875
2023-02-11T09:49:29.398Z,71.2685546875
2023-02-11T09:50:29.668Z,71.1171875
2023-02-11T09:51:29.456Z,70.642578125
2023-02-11T09:52:29.433Z,69.9267578125
2023-02-11T09:53:29.351Z,69.6611328125
2023-02-11T09:54:29.400Z,69.7578125
2023-02-11T09:55:29.677Z,69.8095703125
2023-02-11T09:56:29.410Z,69.6640625
2023-02-11T09:57:29.454Z,68.78125
2023-02-11T09:58:31.808Z,68.494140625
2023-02-11T09:59:29.441Z,68.111328125
2023-02-11T10:00:29.669Z,68.4384765625
2023-02-11T10:01:29.441Z,68.41015625
2023-02-11T10:02:29.334Z,69.197265625
2023-02-11T10:03:29.429Z,69.2548828125
2023-02-11T10:04:29.772Z,68.9501953125
2023-02-11T10:05:29.671Z,68.736328125
2023-02-11T10:06:29.429Z,68.486328125
2023-02-11T10:07:29.463Z,68.103515625
2023-02-11T10:08:29.417Z,67.9931640625
2023-02-11T10:09:31.784Z,68.423828125
2023-02-11T10:10:29.686Z,67.8037109375
2023-02-11T10:11:32.125Z,67.568359375
2023-02-11T10:12:29.317Z,68.2861328125
2023-02-11T10:13:29.392Z,68.09375
2023-02-11T10:14:29.426Z,67.9794921875
2023-02-11T10:15:29.706Z,67.44921875
2023-02-11T10:16:29.455Z,67.3916015625
2023-02-11T10:17:29.379Z,66.9931640625
2023-02-11T10:18:29.343Z,66.71875
2023-02-11T10:19:29.445Z,65.982421875
2023-02-11T10:20:32.174Z,65.81640625
2023-02-11T10:21:29.327Z,65.1328125
2023-02-11T10:22:29.397Z,64.958984375
2023-02-11T10:23:29.374Z,65.3955078125
2023-02-11T10:24:29.455Z,65.8046875
2023-02-11T10:25:29.675Z,66.2236328125
2023-02-11T10:26:29.409Z,66.6767578125
2023-02-11T10:27:29.457Z,67.091796875
2023-02-11T10:28:29.474Z,67.1259765625
2023-02-11T10:29:29.385Z,66.92578125
2023-02-11T10:30:29.414Z,66.9970703125